sensor_id;sensor_type;location;lat;lon;timestamp;temperature;humidity
32322;DHT22;61553;48.994;8.940;2022-09-09T00:02:03;12.10;99.90
32322;DHT22;61553;48.994;8.940;2022-09-09T00:04:33;12.10;99.90
32322;DHT22;61553;48.994;8.940;2022-09-09T00:13:01;12.30;99.90
32322;DHT22;61553;48.994;8.940;2022-09-09T00:15:53;12.40;99.90
32322;DHT22;61553;48.994;8.940;2022-09-09T00:19:07;12.50;99.90
32322;DHT22;61553;48.994;8.940;2022-09-09T00:21:38;12.50;99.90
32322;DHT22;61553;48.994;8.940;2022-09-09T00:27:21;12.60;99.90
32322;DHT22;61553;48.994;8.940;2022-09-09T00:29:56;12.60;99.90
32322;DHT22;61553;48.994;8.940;2022-09-09T00:32:28;12.70;99.90
32322;DHT22;61553;48.994;8.940;2022-09-09T00:37:45;12.80;99.90
32322;DHT22;61553;48.994;8.940;2022-09-09T00:41:01;12.80;99.90
32322;DHT22;61553;48.994;8.940;2022-09-09T00:43:31;12.90;99.90
32322;DHT22;61553;48.994;8.940;2022-09-09T00:46:06;13.00;99.90
32322;DHT22;61553;48.994;8.940;2022-09-09T00:54:23;13.10;99.90
32322;DHT22;61553;48.994;8.940;2022-09-09T00:59:48;13.10;99.90
32322;DHT22;61553;48.994;8.940;2022-09-09T01:05:28;13.10;99.90
32322;DHT22;61553;48.994;8.940;2022-09-09T01:07:58;13.00;99.90
32322;DHT22;61553;48.994;8.940;2022-09-09T01:10:49;13.10;99.90
32322;DHT22;61553;48.994;8.940;2022-09-09T01:13:29;13.10;99.90
32322;DHT22;61553;48.994;8.940;2022-09-09T01:16:00;13.10;99.90
32322;DHT22;61553;48.994;8.940;2022-09-09T01:18:45;13.20;99.90
32322;DHT22;61553;48.994;8.940;2022-09-09T01:26:51;13.20;99.90
32322;DHT22;61553;48.994;8.940;2022-09-09T01:29:18;13.20;99.90
32322;DHT22;61553;48.994;8.940;2022-09-09T01:32:02;13.20;99.90
32322;DHT22;61553;48.994;8.940;2022-09-09T01:34:38;13.20;99.90
32322;DHT22;61553;48.994;8.940;2022-09-09T01:37:08;13.20;99.90
32322;DHT22;61553;48.994;8.940;2022-09-09T01:39:36;13.20;99.90
32322;DHT22;61553;48.994;8.940;2022-09-09T01:42:03;13.10;99.90
32322;DHT22;61553;48.994;8.940;2022-09-09T01:44:30;13.10;99.90
32322;DHT22;61553;48.994;8.940;2022-09-09T01:46:56;13.10;99.90
32322;DHT22;61553;48.994;8.940;2022-09-09T01:49:22;13.10;99.90
32322;DHT22;61553;48.994;8.940;2022-09-09T01:51:53;13.10;99.90
32322;DHT22;61553;48.994;8.940;2022-09-09T01:54:26;13.10;99.90
32322;DHT22;61553;48.994;8.940;2022-09-09T01:59:53;13.30;99.90
32322;DHT22;61553;48.994;8.940;2022-09-09T02:02:34;13.30;99.90
32322;DHT22;61553;48.994;8.940;2022-09-09T02:08:09;13.30;99.90
32322;DHT22;61553;48.994;8.940;2022-09-09T02:10:46;13.40;99.90
32322;DHT22;61553;48.994;8.940;2022-09-09T02:13:14;13.40;99.90
32322;DHT22;61553;48.994;8.940;2022-09-09T02:19:01;13.30;99.90
32322;DHT22;61553;48.994;8.940;2022-09-09T02:21:31;13.30;99.90
32322;DHT22;61553;48.994;8.940;2022-09-09T02:24:03;13.30;99.90
32322;DHT22;61553;48.994;8.940;2022-09-09T02:26:32;13.20;99.90
32322;DHT22;61553;48.994;8.940;2022-09-09T02:29:00;13.20;99.90
32322;DHT22;61553;48.994;8.940;2022-09-09T02:31:27;13.20;99.90
32322;DHT22;61553;48.994;8.940;2022-09-09T02:33:59;13.10;99.90
32322;DHT22;61553;48.994;8.940;2022-09-09T02:36:30;13.10;99.90
32322;DHT22;61553;48.994;8.940;2022-09-09T02:38:59;13.20;99.90
32322;DHT22;61553;48.994;8.940;2022-09-09T02:41:34;13.30;99.90
32322;DHT22;61553;48.994;8.940;2022-09-09T02:44:00;13.40;99.90
32322;DHT22;61553;48.994;8.940;2022-09-09T02:52:26;13.40;99.90
32322;DHT22;61553;48.994;8.940;2022-09-09T02:54:57;13.40;99.90
32322;DHT22;61553;48.994;8.940;2022-09-09T02:57:27;13.50;99.90
32322;DHT22;61553;48.994;8.940;2022-09-09T02:59:53;13.40;99.90
32322;DHT22;61553;48.994;8.940;2022-09-09T03:02:22;13.40;99.90
32322;DHT22;61553;48.994;8.940;2022-09-09T03:04:48;13.40;99.90
32322;DHT22;61553;48.994;8.940;2022-09-09T03:07:17;13.40;99.90
32322;DHT22;61553;48.994;8.940;2022-09-09T03:09:43;13.30;99.90
32322;DHT22;61553;48.994;8.940;2022-09-09T03:12:10;13.30;99.90
32322;DHT22;61553;48.994;8.940;2022-09-09T03:14:37;13.20;99.90
32322;DHT22;61553;48.994;8.940;2022-09-09T03:17:04;13.20;99.90
32322;DHT22;61553;48.994;8.940;2022-09-09T03:19:30;13.20;99.90
32322;DHT22;61553;48.994;8.940;2022-09-09T03:21:55;13.30;99.90
32322;DHT22;61553;48.994;8.940;2022-09-09T03:24:21;13.30;99.90
32322;DHT22;61553;48.994;8.940;2022-09-09T03:26:48;13.30;99.90
32322;DHT22;61553;48.994;8.940;2022-09-09T03:29:14;13.40;99.90
32322;DHT22;61553;48.994;8.940;2022-09-09T03:31:40;13.40;99.90
32322;DHT22;61553;48.994;8.940;2022-09-09T03:34:06;13.40;99.90
32322;DHT22;61553;48.994;8.940;2022-09-09T03:36:32;13.40;99.90
32322;DHT22;61553;48.994;8.940;2022-09-09T03:38:58;13.40;99.90
32322;DHT22;61553;48.994;8.940;2022-09-09T03:41:25;13.40;99.90
32322;DHT22;61553;48.994;8.940;2022-09-09T03:43:51;13.40;99.90
32322;DHT22;61553;48.994;8.940;2022-09-09T03:46:18;13.40;99.90
32322;DHT22;61553;48.994;8.940;2022-09-09T03:48:44;13.40;99.90
32322;DHT22;61553;48.994;8.940;2022-09-09T03:51:09;13.40;99.90
32322;DHT22;61553;48.994;8.940;2022-09-09T03:53:36;13.30;99.90
32322;DHT22;61553;48.994;8.940;2022-09-09T03:56:03;13.30;99.90
32322;DHT22;61553;48.994;8.940;2022-09-09T03:58:33;13.10;99.90
32322;DHT22;61553;48.994;8.940;2022-09-09T04:01:00;13.10;99.90
32322;DHT22;61553;48.994;8.940;2022-09-09T04:03:26;13.00;99.90
32322;DHT22;61553;48.994;8.940;2022-09-09T04:05:53;12.90;99.90
32322;DHT22;61553;48.994;8.940;2022-09-09T04:08:19;12.90;99.90
32322;DHT22;61553;48.994;8.940;2022-09-09T04:10:49;12.80;99.90
32322;DHT22;61553;48.994;8.940;2022-09-09T04:13:16;12.90;99.90
32322;DHT22;61553;48.994;8.940;2022-09-09T04:15:44;13.00;99.90
32322;DHT22;61553;48.994;8.940;2022-09-09T04:18:11;13.10;99.90
32322;DHT22;61553;48.994;8.940;2022-09-09T04:20:37;13.20;99.90
32322;DHT22;61553;48.994;8.940;2022-09-09T04:23:03;13.30;99.90
32322;DHT22;61553;48.994;8.940;2022-09-09T04:25:30;13.30;99.90
32322;DHT22;61553;48.994;8.940;2022-09-09T04:27:56;13.30;99.90
32322;DHT22;61553;48.994;8.940;2022-09-09T04:30:23;13.30;99.90
32322;DHT22;61553;48.994;8.940;2022-09-09T04:32:49;13.40;99.90
32322;DHT22;61553;48.994;8.940;2022-09-09T04:35:14;13.50;99.90
32322;DHT22;61553;48.994;8.940;2022-09-09T04:37:40;13.50;99.90
32322;DHT22;61553;48.994;8.940;2022-09-09T04:40:07;13.50;99.90
32322;DHT22;61553;48.994;8.940;2022-09-09T04:42:35;13.50;99.90
32322;DHT22;61553;48.994;8.940;2022-09-09T04:45:02;13.50;99.90
32322;DHT22;61553;48.994;8.940;2022-09-09T04:47:27;13.50;99.90
32322;DHT22;61553;48.994;8.940;2022-09-09T04:49:53;13.60;99.90
32322;DHT22;61553;48.994;8.940;2022-09-09T04:52:20;13.60;99.90
32322;DHT22;61553;48.994;8.940;2022-09-09T04:54:46;13.50;99.90
32322;DHT22;61553;48.994;8.940;2022-09-09T04:57:12;13.50;99.90
32322;DHT22;61553;48.994;8.940;2022-09-09T04:59:38;13.50;99.90
32322;DHT22;61553;48.994;8.940;2022-09-09T05:02:04;13.40;99.90
32322;DHT22;61553;48.994;8.940;2022-09-09T05:04:30;13.40;99.90
32322;DHT22;61553;48.994;8.940;2022-09-09T05:06:56;13.30;99.90
32322;DHT22;61553;48.994;8.940;2022-09-09T05:09:21;13.30;99.90
32322;DHT22;61553;48.994;8.940;2022-09-09T05:11:47;13.30;99.90
32322;DHT22;61553;48.994;8.940;2022-09-09T05:14:14;13.30;99.90
32322;DHT22;61553;48.994;8.940;2022-09-09T05:16:40;13.30;99.90
32322;DHT22;61553;48.994;8.940;2022-09-09T05:19:06;13.30;99.90
32322;DHT22;61553;48.994;8.940;2022-09-09T05:21:33;13.40;99.90
32322;DHT22;61553;48.994;8.940;2022-09-09T05:23:59;13.40;99.90
32322;DHT22;61553;48.994;8.940;2022-09-09T05:26:26;13.50;99.90
32322;DHT22;61553;48.994;8.940;2022-09-09T05:28:51;13.50;99.90
32322;DHT22;61553;48.994;8.940;2022-09-09T05:31:18;13.60;99.90
32322;DHT22;61553;48.994;8.940;2022-09-09T05:33:45;13.60;99.90
32322;DHT22;61553;48.994;8.940;2022-09-09T05:36:20;13.80;99.90
32322;DHT22;61553;48.994;8.940;2022-09-09T05:38:46;13.90;99.90
32322;DHT22;61553;48.994;8.940;2022-09-09T05:41:12;14.10;99.90
32322;DHT22;61553;48.994;8.940;2022-09-09T05:43:41;14.20;99.90
32322;DHT22;61553;48.994;8.940;2022-09-09T05:46:08;14.40;99.90
32322;DHT22;61553;48.994;8.940;2022-09-09T05:48:42;14.50;99.90
32322;DHT22;61553;48.994;8.940;2022-09-09T05:51:12;14.50;99.90
32322;DHT22;61553;48.994;8.940;2022-09-09T05:53:41;14.60;99.90
32322;DHT22;61553;48.994;8.940;2022-09-09T05:56:12;14.70;99.90
32322;DHT22;61553;48.994;8.940;2022-09-09T05:58:39;14.70;99.90
32322;DHT22;61553;48.994;8.940;2022-09-09T06:03:40;15.00;99.90
32322;DHT22;61553;48.994;8.940;2022-09-09T06:06:12;15.10;99.90
32322;DHT22;61553;48.994;8.940;2022-09-09T06:08:39;15.30;99.90
32322;DHT22;61553;48.994;8.940;2022-09-09T06:11:11;15.50;99.90
32322;DHT22;61553;48.994;8.940;2022-09-09T06:13:37;15.70;99.90
32322;DHT22;61553;48.994;8.940;2022-09-09T06:16:05;16.00;99.90
32322;DHT22;61553;48.994;8.940;2022-09-09T06:18:32;16.20;99.90
32322;DHT22;61553;48.994;8.940;2022-09-09T06:21:00;16.40;99.90
32322;DHT22;61553;48.994;8.940;2022-09-09T06:23:27;16.70;99.90
32322;DHT22;61553;48.994;8.940;2022-09-09T06:26:20;16.90;99.90
32322;DHT22;61553;48.994;8.940;2022-09-09T06:28:47;17.10;99.90
32322;DHT22;61553;48.994;8.940;2022-09-09T06:31:15;17.20;99.90
32322;DHT22;61553;48.994;8.940;2022-09-09T06:33:47;17.30;99.90
32322;DHT22;61553;48.994;8.940;2022-09-09T06:36:18;17.20;99.90
32322;DHT22;61553;48.994;8.940;2022-09-09T06:38:45;17.00;99.90
32322;DHT22;61553;48.994;8.940;2022-09-09T06:41:12;16.90;99.90
32322;DHT22;61553;48.994;8.940;2022-09-09T06:43:39;17.00;99.90
32322;DHT22;61553;48.994;8.940;2022-09-09T06:46:18;17.10;99.90
32322;DHT22;61553;48.994;8.940;2022-09-09T06:48:44;17.60;99.90
32322;DHT22;61553;48.994;8.940;2022-09-09T06:51:16;18.00;99.90
32322;DHT22;61553;48.994;8.940;2022-09-09T06:53:42;18.40;99.90
32322;DHT22;61553;48.994;8.940;2022-09-09T06:58:35;19.20;99.90
32322;DHT22;61553;48.994;8.940;2022-09-09T07:01:06;19.20;99.90
32322;DHT22;61553;48.994;8.940;2022-09-09T07:03:33;19.20;99.90
32322;DHT22;61553;48.994;8.940;2022-09-09T07:05:59;19.30;99.90
32322;DHT22;61553;48.994;8.940;2022-09-09T07:08:25;19.40;99.90
32322;DHT22;61553;48.994;8.940;2022-09-09T07:10:52;19.50;99.90
32322;DHT22;61553;48.994;8.940;2022-09-09T07:13:26;19.90;99.90
32322;DHT22;61553;48.994;8.940;2022-09-09T07:15:52;20.40;99.90
32322;DHT22;61553;48.994;8.940;2022-09-09T07:18:19;20.60;99.90
32322;DHT22;61553;48.994;8.940;2022-09-09T07:20:55;20.60;99.90
32322;DHT22;61553;48.994;8.940;2022-09-09T07:23:21;20.70;99.90
32322;DHT22;61553;48.994;8.940;2022-09-09T07:25:47;21.00;99.90
32322;DHT22;61553;48.994;8.940;2022-09-09T07:28:13;22.70;99.90
32322;DHT22;61553;48.994;8.940;2022-09-09T07:30:39;23.70;98.90
32322;DHT22;61553;48.994;8.940;2022-09-09T07:33:06;23.60;97.10
32322;DHT22;61553;48.994;8.940;2022-09-09T07:35:31;23.80;95.90
32322;DHT22;61553;48.994;8.940;2022-09-09T07:37:57;24.20;95.10
32322;DHT22;61553;48.994;8.940;2022-09-09T07:40:24;25.10;92.90
32322;DHT22;61553;48.994;8.940;2022-09-09T07:42:49;25.60;90.80
32322;DHT22;61553;48.994;8.940;2022-09-09T07:45:15;27.10;86.00
32322;DHT22;61553;48.994;8.940;2022-09-09T07:47:41;28.20;79.20
32322;DHT22;61553;48.994;8.940;2022-09-09T07:50:09;30.00;71.80
32322;DHT22;61553;48.994;8.940;2022-09-09T07:52:35;32.00;63.20
32322;DHT22;61553;48.994;8.940;2022-09-09T07:55:00;33.70;56.80
32322;DHT22;61553;48.994;8.940;2022-09-09T07:57:28;34.90;53.00
32322;DHT22;61553;48.994;8.940;2022-09-09T07:59:56;36.30;48.20
32322;DHT22;61553;48.994;8.940;2022-09-09T08:02:25;36.90;46.60
32322;DHT22;61553;48.994;8.940;2022-09-09T08:04:53;36.60;46.20
32322;DHT22;61553;48.994;8.940;2022-09-09T08:07:18;36.90;44.30
32322;DHT22;61553;48.994;8.940;2022-09-09T08:09:46;38.00;42.60
32322;DHT22;61553;48.994;8.940;2022-09-09T08:12:12;39.30;40.90
32322;DHT22;61553;48.994;8.940;2022-09-09T08:14:38;40.10;40.30
32322;DHT22;61553;48.994;8.940;2022-09-09T08:17:04;40.60;38.50
32322;DHT22;61553;48.994;8.940;2022-09-09T08:19:30;41.10;38.20
32322;DHT22;61553;48.994;8.940;2022-09-09T08:21:56;41.80;37.00
32322;DHT22;61553;48.994;8.940;2022-09-09T08:24:21;41.80;36.60
32322;DHT22;61553;48.994;8.940;2022-09-09T08:26:48;40.60;37.30
32322;DHT22;61553;48.994;8.940;2022-09-09T08:29:15;38.70;38.80
32322;DHT22;61553;48.994;8.940;2022-09-09T08:34:15;34.30;42.20
32322;DHT22;61553;48.994;8.940;2022-09-09T08:36:43;33.60;43.60
32322;DHT22;61553;48.994;8.940;2022-09-09T08:39:11;34.50;42.40
32322;DHT22;61553;48.994;8.940;2022-09-09T08:47:26;37.30;39.80
32322;DHT22;61553;48.994;8.940;2022-09-09T08:57:55;38.90;38.50
32322;DHT22;61553;48.994;8.940;2022-09-09T09:00:21;39.20;37.60
32322;DHT22;61553;48.994;8.940;2022-09-09T09:06:04;40.20;37.00
32322;DHT22;61553;48.994;8.940;2022-09-09T09:08:43;39.20;37.60
32322;DHT22;61553;48.994;8.940;2022-09-09T09:11:10;38.60;38.90
32322;DHT22;61553;48.994;8.940;2022-09-09T09:13:54;36.80;40.30
32322;DHT22;61553;48.994;8.940;2022-09-09T09:16:27;34.20;43.70
32322;DHT22;61553;48.994;8.940;2022-09-09T09:18:54;32.10;46.40
32322;DHT22;61553;48.994;8.940;2022-09-09T09:21:43;30.60;48.30
32322;DHT22;61553;48.994;8.940;2022-09-09T09:27:00;27.20;54.40
32322;DHT22;61553;48.994;8.940;2022-09-09T09:29:32;26.20;56.60
32322;DHT22;61553;48.994;8.940;2022-09-09T09:32:01;25.40;58.90
32322;DHT22;61553;48.994;8.940;2022-09-09T09:34:28;24.70;60.40
32322;DHT22;61553;48.994;8.940;2022-09-09T09:36:58;25.10;61.10
32322;DHT22;61553;48.994;8.940;2022-09-09T09:39:31;27.40;56.70
32322;DHT22;61553;48.994;8.940;2022-09-09T09:42:21;28.70;53.50
32322;DHT22;61553;48.994;8.940;2022-09-09T09:44:47;29.10;52.40
32322;DHT22;61553;48.994;8.940;2022-09-09T09:47:15;29.10;53.00
32322;DHT22;61553;48.994;8.940;2022-09-09T09:49:57;28.10;53.00
32322;DHT22;61553;48.994;8.940;2022-09-09T09:52:30;27.10;53.90
32322;DHT22;61553;48.994;8.940;2022-09-09T09:54:57;26.40;56.00
32322;DHT22;61553;48.994;8.940;2022-09-09T09:57:26;25.80;57.90
32322;DHT22;61553;48.994;8.940;2022-09-09T10:00:20;25.10;59.20
32322;DHT22;61553;48.994;8.940;2022-09-09T10:02:47;24.40;60.40
32322;DHT22;61553;48.994;8.940;2022-09-09T10:07:44;23.00;63.90
32322;DHT22;61553;48.994;8.940;2022-09-09T10:10:23;22.70;63.70
32322;DHT22;61553;48.994;8.940;2022-09-09T10:13:02;22.50;64.80
32322;DHT22;61553;48.994;8.940;2022-09-09T10:15:38;22.40;65.90
32322;DHT22;61553;48.994;8.940;2022-09-09T10:18:56;23.50;63.70
32322;DHT22;61553;48.994;8.940;2022-09-09T10:23:56;30.20;49.90
32322;DHT22;61553;48.994;8.940;2022-09-09T10:35:34;32.60;40.30
32322;DHT22;61553;48.994;8.940;2022-09-09T10:38:30;32.40;40.80
32322;DHT22;61553;48.994;8.940;2022-09-09T10:41:15;32.30;40.30
32322;DHT22;61553;48.994;8.940;2022-09-09T10:57:11;28.60;47.20
32322;DHT22;61553;48.994;8.940;2022-09-09T10:59:44;28.30;48.80
32322;DHT22;61553;48.994;8.940;2022-09-09T11:02:27;27.40;49.10
32322;DHT22;61553;48.994;8.940;2022-09-09T11:07:48;26.00;52.40
32322;DHT22;61553;48.994;8.940;2022-09-09T11:10:26;25.70;51.80
32322;DHT22;61553;48.994;8.940;2022-09-09T11:12:59;25.40;53.00
32322;DHT22;61553;48.994;8.940;2022-09-09T11:15:34;25.10;53.60
32322;DHT22;61553;48.994;8.940;2022-09-09T11:18:04;24.90;54.70
32322;DHT22;61553;48.994;8.940;2022-09-09T11:20:30;24.60;55.20
32322;DHT22;61553;48.994;8.940;2022-09-09T11:23:09;24.40;55.50
32322;DHT22;61553;48.994;8.940;2022-09-09T11:25:40;24.00;56.40
32322;DHT22;61553;48.994;8.940;2022-09-09T11:41:36;22.80;58.40
32322;DHT22;61553;48.994;8.940;2022-09-09T11:44:17;22.70;59.60
32322;DHT22;61553;48.994;8.940;2022-09-09T11:46:46;22.50;61.00
32322;DHT22;61553;48.994;8.940;2022-09-09T11:49:38;22.30;62.10
32322;DHT22;61553;48.994;8.940;2022-09-09T11:55:27;21.90;64.50
32322;DHT22;61553;48.994;8.940;2022-09-09T11:58:18;21.80;65.60
32322;DHT22;61553;48.994;8.940;2022-09-09T12:00:46;21.80;68.10
32322;DHT22;61553;48.994;8.940;2022-09-09T12:03:41;21.90;69.00
32322;DHT22;61553;48.994;8.940;2022-09-09T12:08:44;22.60;70.00
32322;DHT22;61553;48.994;8.940;2022-09-09T12:11:11;23.00;69.10
32322;DHT22;61553;48.994;8.940;2022-09-09T12:13:36;23.40;65.70
32322;DHT22;61553;48.994;8.940;2022-09-09T12:16:03;23.80;63.80
32322;DHT22;61553;48.994;8.940;2022-09-09T12:18:38;23.70;63.40
32322;DHT22;61553;48.994;8.940;2022-09-09T12:21:25;23.50;64.00
32322;DHT22;61553;48.994;8.940;2022-09-09T12:24:30;23.50;63.30
32322;DHT22;61553;48.994;8.940;2022-09-09T12:27:24;23.30;62.70
32322;DHT22;61553;48.994;8.940;2022-09-09T12:30:16;23.30;63.30
32322;DHT22;61553;48.994;8.940;2022-09-09T12:32:42;23.00;63.90
32322;DHT22;61553;48.994;8.940;2022-09-09T12:35:11;22.90;64.10
32322;DHT22;61553;48.994;8.940;2022-09-09T12:37:42;22.90;65.00
32322;DHT22;61553;48.994;8.940;2022-09-09T12:40:32;22.90;63.80
32322;DHT22;61553;48.994;8.940;2022-09-09T12:43:01;22.90;63.20
32322;DHT22;61553;48.994;8.940;2022-09-09T12:45:30;22.80;64.30
32322;DHT22;61553;48.994;8.940;2022-09-09T12:50:33;22.90;64.50
32322;DHT22;61553;48.994;8.940;2022-09-09T12:53:03;23.00;64.40
32322;DHT22;61553;48.994;8.940;2022-09-09T12:55:35;23.00;64.90
32322;DHT22;61553;48.994;8.940;2022-09-09T12:58:03;23.10;63.50
32322;DHT22;61553;48.994;8.940;2022-09-09T13:00:32;23.00;63.80
32322;DHT22;61553;48.994;8.940;2022-09-09T13:03:14;23.10;64.90
32322;DHT22;61553;48.994;8.940;2022-09-09T13:05:41;23.10;63.10
32322;DHT22;61553;48.994;8.940;2022-09-09T13:08:11;23.30;62.90
32322;DHT22;61553;48.994;8.940;2022-09-09T13:10:48;23.50;61.50
32322;DHT22;61553;48.994;8.940;2022-09-09T13:13:21;23.60;62.20
32322;DHT22;61553;48.994;8.940;2022-09-09T13:15:53;23.70;61.90
32322;DHT22;61553;48.994;8.940;2022-09-09T13:18:23;23.70;61.70
32322;DHT22;61553;48.994;8.940;2022-09-09T13:20:49;23.70;62.80
32322;DHT22;61553;48.994;8.940;2022-09-09T13:23:17;23.70;62.10
32322;DHT22;61553;48.994;8.940;2022-09-09T13:25:54;23.60;62.20
32322;DHT22;61553;48.994;8.940;2022-09-09T13:28:22;23.40;62.00
32322;DHT22;61553;48.994;8.940;2022-09-09T13:31:33;23.50;61.80
32322;DHT22;61553;48.994;8.940;2022-09-09T13:33:58;24.10;61.40
32322;DHT22;61553;48.994;8.940;2022-09-09T13:36:33;24.30;59.50
32322;DHT22;61553;48.994;8.940;2022-09-09T13:39:02;24.20;59.80
32322;DHT22;61553;48.994;8.940;2022-09-09T13:41:35;24.20;59.80
32322;DHT22;61553;48.994;8.940;2022-09-09T13:44:03;24.10;60.70
32322;DHT22;61553;48.994;8.940;2022-09-09T13:46:35;24.20;60.60
32322;DHT22;61553;48.994;8.940;2022-09-09T13:51:45;24.60;58.00
32322;DHT22;61553;48.994;8.940;2022-09-09T13:54:14;24.60;55.90
32322;DHT22;61553;48.994;8.940;2022-09-09T13:56:41;24.40;53.40
32322;DHT22;61553;48.994;8.940;2022-09-09T13:59:18;24.30;54.00
32322;DHT22;61553;48.994;8.940;2022-09-09T14:01:48;24.10;55.30
32322;DHT22;61553;48.994;8.940;2022-09-09T14:04:17;23.40;56.30
32322;DHT22;61553;48.994;8.940;2022-09-09T14:06:43;23.20;57.90
32322;DHT22;61553;48.994;8.940;2022-09-09T14:09:14;23.00;58.80
32322;DHT22;61553;48.994;8.940;2022-09-09T14:11:40;22.70;59.10
32322;DHT22;61553;48.994;8.940;2022-09-09T14:14:06;22.50;60.70
32322;DHT22;61553;48.994;8.940;2022-09-09T14:16:32;22.50;62.00
32322;DHT22;61553;48.994;8.940;2022-09-09T14:18:58;22.40;61.10
32322;DHT22;61553;48.994;8.940;2022-09-09T14:21:25;22.40;62.00
32322;DHT22;61553;48.994;8.940;2022-09-09T14:23:51;22.30;63.00
32322;DHT22;61553;48.994;8.940;2022-09-09T14:26:20;22.30;64.40
32322;DHT22;61553;48.994;8.940;2022-09-09T14:28:46;22.30;63.50
32322;DHT22;61553;48.994;8.940;2022-09-09T14:31:12;22.30;63.50
32322;DHT22;61553;48.994;8.940;2022-09-09T14:33:39;22.30;63.80
32322;DHT22;61553;48.994;8.940;2022-09-09T14:36:05;22.30;63.70
32322;DHT22;61553;48.994;8.940;2022-09-09T14:38:33;22.30;65.30
32322;DHT22;61553;48.994;8.940;2022-09-09T14:41:00;22.30;65.50
32322;DHT22;61553;48.994;8.940;2022-09-09T14:43:28;22.30;66.00
32322;DHT22;61553;48.994;8.940;2022-09-09T14:45:55;22.30;66.70
32322;DHT22;61553;48.994;8.940;2022-09-09T14:48:21;22.20;67.50
32322;DHT22;61553;48.994;8.940;2022-09-09T14:50:47;22.10;68.40
32322;DHT22;61553;48.994;8.940;2022-09-09T14:53:12;22.20;68.00
32322;DHT22;61553;48.994;8.940;2022-09-09T14:55:38;22.20;65.20
32322;DHT22;61553;48.994;8.940;2022-09-09T14:58:04;22.30;63.50
32322;DHT22;61553;48.994;8.940;2022-09-09T15:00:31;22.40;63.20
32322;DHT22;61553;48.994;8.940;2022-09-09T15:02:57;22.60;60.40
32322;DHT22;61553;48.994;8.940;2022-09-09T15:05:23;22.50;60.00
32322;DHT22;61553;48.994;8.940;2022-09-09T15:07:50;22.60;60.80
32322;DHT22;61553;48.994;8.940;2022-09-09T15:10:16;22.80;60.50
32322;DHT22;61553;48.994;8.940;2022-09-09T15:12:43;22.90;59.70
32322;DHT22;61553;48.994;8.940;2022-09-09T15:15:09;23.10;59.50
32322;DHT22;61553;48.994;8.940;2022-09-09T15:17:35;23.00;59.40
32322;DHT22;61553;48.994;8.940;2022-09-09T15:20:03;23.00;59.40
32322;DHT22;61553;48.994;8.940;2022-09-09T15:22:31;22.90;59.30
32322;DHT22;61553;48.994;8.940;2022-09-09T15:24:57;22.80;60.00
32322;DHT22;61553;48.994;8.940;2022-09-09T15:27:22;22.80;59.30
32322;DHT22;61553;48.994;8.940;2022-09-09T15:29:49;23.00;59.80
32322;DHT22;61553;48.994;8.940;2022-09-09T15:32:15;23.30;60.00
32322;DHT22;61553;48.994;8.940;2022-09-09T15:34:41;23.40;59.60
32322;DHT22;61553;48.994;8.940;2022-09-09T15:37:10;23.50;59.50
32322;DHT22;61553;48.994;8.940;2022-09-09T15:39:38;23.40;59.60
32322;DHT22;61553;48.994;8.940;2022-09-09T15:42:04;23.20;60.80
32322;DHT22;61553;48.994;8.940;2022-09-09T15:44:38;22.80;60.40
32322;DHT22;61553;48.994;8.940;2022-09-09T15:47:04;22.50;61.80
32322;DHT22;61553;48.994;8.940;2022-09-09T15:49:30;22.20;62.50
32322;DHT22;61553;48.994;8.940;2022-09-09T15:51:59;22.00;63.10
32322;DHT22;61553;48.994;8.940;2022-09-09T15:54:31;21.80;64.50
32322;DHT22;61553;48.994;8.940;2022-09-09T15:56:59;21.60;65.30
32322;DHT22;61553;48.994;8.940;2022-09-09T15:59:28;21.40;67.50
32322;DHT22;61553;48.994;8.940;2022-09-09T16:01:54;21.20;69.70
32322;DHT22;61553;48.994;8.940;2022-09-09T16:04:21;20.90;71.40
32322;DHT22;61553;48.994;8.940;2022-09-09T16:06:58;20.80;72.40
32322;DHT22;61553;48.994;8.940;2022-09-09T16:09:24;20.70;73.00
32322;DHT22;61553;48.994;8.940;2022-09-09T16:11:51;20.60;74.00
32322;DHT22;61553;48.994;8.940;2022-09-09T16:14:18;20.30;74.90
32322;DHT22;61553;48.994;8.940;2022-09-09T16:16:44;20.20;76.40
32322;DHT22;61553;48.994;8.940;2022-09-09T16:19:11;20.00;79.40
32322;DHT22;61553;48.994;8.940;2022-09-09T16:21:43;19.80;80.80
32322;DHT22;61553;48.994;8.940;2022-09-09T16:24:11;19.70;82.60
32322;DHT22;61553;48.994;8.940;2022-09-09T16:26:39;19.50;84.60
32322;DHT22;61553;48.994;8.940;2022-09-09T16:29:05;19.30;86.60
32322;DHT22;61553;48.994;8.940;2022-09-09T16:31:31;19.10;90.60
32322;DHT22;61553;48.994;8.940;2022-09-09T16:34:00;19.00;92.40
32322;DHT22;61553;48.994;8.940;2022-09-09T16:36:28;18.80;93.30
32322;DHT22;61553;48.994;8.940;2022-09-09T16:38:57;18.80;95.90
32322;DHT22;61553;48.994;8.940;2022-09-09T16:41:24;18.70;97.70
32322;DHT22;61553;48.994;8.940;2022-09-09T16:44:10;18.70;99.50
32322;DHT22;61553;48.994;8.940;2022-09-09T16:46:38;18.70;99.00
32322;DHT22;61553;48.994;8.940;2022-09-09T16:49:06;18.70;99.90
32322;DHT22;61553;48.994;8.940;2022-09-09T16:51:44;18.70;99.40
32322;DHT22;61553;48.994;8.940;2022-09-09T16:54:10;18.80;99.40
32322;DHT22;61553;48.994;8.940;2022-09-09T16:56:38;18.70;99.60
32322;DHT22;61553;48.994;8.940;2022-09-09T16:59:13;18.70;99.90
32322;DHT22;61553;48.994;8.940;2022-09-09T17:01:41;18.80;99.90
32322;DHT22;61553;48.994;8.940;2022-09-09T17:04:13;18.80;99.90
32322;DHT22;61553;48.994;8.940;2022-09-09T17:06:40;18.70;99.90
32322;DHT22;61553;48.994;8.940;2022-09-09T17:09:11;18.60;99.90
32322;DHT22;61553;48.994;8.940;2022-09-09T17:11:40;18.50;99.90
32322;DHT22;61553;48.994;8.940;2022-09-09T17:14:07;18.40;99.90
32322;DHT22;61553;48.994;8.940;2022-09-09T17:16:35;18.20;99.90
32322;DHT22;61553;48.994;8.940;2022-09-09T17:19:01;18.10;99.90
32322;DHT22;61553;48.994;8.940;2022-09-09T17:21:29;17.90;99.90
32322;DHT22;61553;48.994;8.940;2022-09-09T17:23:56;17.70;99.90
32322;DHT22;61553;48.994;8.940;2022-09-09T17:26:25;17.50;99.90
32322;DHT22;61553;48.994;8.940;2022-09-09T17:28:53;17.30;99.90
32322;DHT22;61553;48.994;8.940;2022-09-09T17:31:21;17.10;99.90
32322;DHT22;61553;48.994;8.940;2022-09-09T17:33:49;16.90;99.90
32322;DHT22;61553;48.994;8.940;2022-09-09T17:36:20;16.70;99.90
32322;DHT22;61553;48.994;8.940;2022-09-09T17:38:47;16.60;99.90
32322;DHT22;61553;48.994;8.940;2022-09-09T17:41:16;16.50;99.90
32322;DHT22;61553;48.994;8.940;2022-09-09T17:43:42;16.30;99.90
32322;DHT22;61553;48.994;8.940;2022-09-09T17:46:17;16.20;99.90
32322;DHT22;61553;48.994;8.940;2022-09-09T17:48:45;16.10;99.90
32322;DHT22;61553;48.994;8.940;2022-09-09T17:51:15;16.00;99.90
32322;DHT22;61553;48.994;8.940;2022-09-09T17:53:45;15.90;99.90
32322;DHT22;61553;48.994;8.940;2022-09-09T17:56:14;15.80;99.90